sensor_id;sensor_type;location;lat;lon;timestamp;P1;durP1;ratioP1;P2;durP2;ratioP2
9322;SDS011;4700;48.822;9.270;2023-01-16T00:02:09;2.43;;;2.23;;
9322;SDS011;4700;48.822;9.270;2023-01-16T00:04:56;3.10;;;2.20;;
9322;SDS011;4700;48.822;9.270;2023-01-16T00:07:42;2.73;;;2.53;;
9322;SDS011;4700;48.822;9.270;2023-01-16T00:10:28;5.33;;;2.20;;
9322;SDS011;4700;48.822;9.270;2023-01-16T00:13:17;2.63;;;2.43;;
9322;SDS011;4700;48.822;9.270;2023-01-16T00:16:03;2.43;;;2.30;;
9322;SDS011;4700;48.822;9.270;2023-01-16T00:18:49;4.67;;;2.70;;
9322;SDS011;4700;48.822;9.270;2023-01-16T00:21:36;2.30;;;2.10;;
9322;SDS011;4700;48.822;9.270;2023-01-16T00:24:22;2.00;;;1.90;;
9322;SDS011;4700;48.822;9.270;2023-01-16T00:27:07;2.33;;;2.13;;
9322;SDS011;4700;48.822;9.270;2023-01-16T00:29:54;2.43;;;2.23;;
9322;SDS011;4700;48.822;9.270;2023-01-16T00:32:40;4.67;;;2.67;;
9322;SDS011;4700;48.822;9.270;2023-01-16T00:35:26;2.73;;;2.50;;
9322;SDS011;4700;48.822;9.270;2023-01-16T00:38:12;2.70;;;2.50;;
9322;SDS011;4700;48.822;9.270;2023-01-16T00:40:58;2.80;;;2.60;;
9322;SDS011;4700;48.822;9.270;2023-01-16T00:43:44;5.30;;;3.20;;
9322;SDS011;4700;48.822;9.270;2023-01-16T00:46:31;2.80;;;2.70;;
9322;SDS011;4700;48.822;9.270;2023-01-16T00:49:17;3.50;;;2.60;;
9322;SDS011;4700;48.822;9.270;2023-01-16T00:52:03;9.93;;;3.17;;
9322;SDS011;4700;48.822;9.270;2023-01-16T00:54:49;3.17;;;2.80;;
9322;SDS011;4700;48.822;9.270;2023-01-16T00:57:35;3.40;;;2.93;;
9322;SDS011;4700;48.822;9.270;2023-01-16T01:00:21;3.27;;;2.30;;
9322;SDS011;4700;48.822;9.270;2023-01-16T01:03:08;4.47;;;2.30;;
9322;SDS011;4700;48.822;9.270;2023-01-16T01:05:54;3.30;;;2.07;;
9322;SDS011;4700;48.822;9.270;2023-01-16T01:08:40;2.57;;;1.90;;
9322;SDS011;4700;48.822;9.270;2023-01-16T01:11:26;1.43;;;1.43;;
9322;SDS011;4700;48.822;9.270;2023-01-16T01:14:12;2.80;;;1.87;;
9322;SDS011;4700;48.822;9.270;2023-01-16T01:16:57;2.63;;;1.90;;
9322;SDS011;4700;48.822;9.270;2023-01-16T01:19:45;2.50;;;2.30;;
9322;SDS011;4700;48.822;9.270;2023-01-16T01:22:31;3.00;;;2.23;;
9322;SDS011;4700;48.822;9.270;2023-01-16T01:25:16;2.17;;;2.00;;
9322;SDS011;4700;48.822;9.270;2023-01-16T01:28:02;2.90;;;2.40;;
9322;SDS011;4700;48.822;9.270;2023-01-16T01:30:48;5.07;;;2.30;;
9322;SDS011;4700;48.822;9.270;2023-01-16T01:33:35;3.37;;;2.27;;
9322;SDS011;4700;48.822;9.270;2023-01-16T01:36:22;2.50;;;2.20;;
9322;SDS011;4700;48.822;9.270;2023-01-16T01:39:07;3.10;;;2.80;;
9322;SDS011;4700;48.822;9.270;2023-01-16T01:41:53;2.43;;;2.23;;
9322;SDS011;4700;48.822;9.270;2023-01-16T01:45:01;3.27;;;2.97;;
9322;SDS011;4700;48.822;9.270;2023-01-16T01:47:53;3.60;;;3.13;;
9322;SDS011;4700;48.822;9.270;2023-01-16T01:50:43;3.13;;;2.93;;
9322;SDS011;4700;48.822;9.270;2023-01-16T01:53:35;2.73;;;2.63;;
9322;SDS011;4700;48.822;9.270;2023-01-16T01:56:24;2.93;;;2.83;;
9322;SDS011;4700;48.822;9.270;2023-01-16T01:59:14;2.83;;;2.63;;
9322;SDS011;4700;48.822;9.270;2023-01-16T02:02:03;3.30;;;3.10;;
9322;SDS011;4700;48.822;9.270;2023-01-16T02:04:50;2.87;;;2.23;;
9322;SDS011;4700;48.822;9.270;2023-01-16T02:07:40;3.17;;;2.30;;
9322;SDS011;4700;48.822;9.270;2023-01-16T02:10:30;3.03;;;2.83;;
9322;SDS011;4700;48.822;9.270;2023-01-16T02:13:21;2.60;;;2.50;;
9322;SDS011;4700;48.822;9.270;2023-01-16T02:16:06;2.40;;;2.30;;
9322;SDS011;4700;48.822;9.270;2023-01-16T02:19:12;2.87;;;2.70;;
9322;SDS011;4700;48.822;9.270;2023-01-16T02:28:53;2.80;;;2.70;;
9322;SDS011;4700;48.822;9.270;2023-01-16T02:31:53;3.03;;;2.93;;
9322;SDS011;4700;48.822;9.270;2023-01-16T02:34:53;3.17;;;3.08;;
9322;SDS011;4700;48.822;9.270;2023-01-16T02:37:58;5.03;;;4.37;;
9322;SDS011;4700;48.822;9.270;2023-01-16T02:40:47;3.23;;;3.03;;
9322;SDS011;4700;48.822;9.270;2023-01-16T02:43:46;4.13;;;3.93;;
9322;SDS011;4700;48.822;9.270;2023-01-16T02:46:38;5.10;;;4.90;;
9322;SDS011;4700;48.822;9.270;2023-01-16T02:49:34;3.77;;;3.57;;
9322;SDS011;4700;48.822;9.270;2023-01-16T02:52:27;5.50;;;5.30;;
9322;SDS011;4700;48.822;9.270;2023-01-16T02:55:22;3.77;;;3.57;;
9322;SDS011;4700;48.822;9.270;2023-01-16T02:58:12;3.90;;;3.33;;
9322;SDS011;4700;48.822;9.270;2023-01-16T03:00:59;3.83;;;3.63;;
9322;SDS011;4700;48.822;9.270;2023-01-16T03:03:47;3.60;;;3.40;;
9322;SDS011;4700;48.822;9.270;2023-01-16T03:06:48;3.00;;;2.80;;
9322;SDS011;4700;48.822;9.270;2023-01-16T03:09:42;2.80;;;2.33;;
9322;SDS011;4700;48.822;9.270;2023-01-16T03:12:36;1.83;;;1.83;;
9322;SDS011;4700;48.822;9.270;2023-01-16T03:15:32;2.80;;;2.60;;
9322;SDS011;4700;48.822;9.270;2023-01-16T03:18:28;2.17;;;2.07;;
9322;SDS011;4700;48.822;9.270;2023-01-16T03:21:22;2.23;;;2.03;;
9322;SDS011;4700;48.822;9.270;2023-01-16T03:24:21;3.17;;;2.88;;
9322;SDS011;4700;48.822;9.270;2023-01-16T03:27:17;5.13;;;2.07;;
9322;SDS011;4700;48.822;9.270;2023-01-16T03:30:18;2.60;;;2.40;;
9322;SDS011;4700;48.822;9.270;2023-01-16T03:33:13;3.23;;;2.40;;
9322;SDS011;4700;48.822;9.270;2023-01-16T03:36:06;5.80;;;4.17;;
9322;SDS011;4700;48.822;9.270;2023-01-16T03:38:57;2.60;;;2.50;;
9322;SDS011;4700;48.822;9.270;2023-01-16T03:41:48;5.30;;;3.00;;
9322;SDS011;4700;48.822;9.270;2023-01-16T03:44:39;3.83;;;3.63;;
9322;SDS011;4700;48.822;9.270;2023-01-16T03:47:29;3.60;;;3.50;;
9322;SDS011;4700;48.822;9.270;2023-01-16T03:50:20;5.20;;;3.40;;
9322;SDS011;4700;48.822;9.270;2023-01-16T03:53:08;3.30;;;3.10;;
9322;SDS011;4700;48.822;9.270;2023-01-16T03:56:00;4.10;;;3.00;;
9322;SDS011;4700;48.822;9.270;2023-01-16T03:58:53;3.90;;;3.60;;
9322;SDS011;4700;48.822;9.270;2023-01-16T04:01:42;3.90;;;3.70;;
9322;SDS011;4700;48.822;9.270;2023-01-16T04:04:34;3.73;;;3.50;;
9322;SDS011;4700;48.822;9.270;2023-01-16T04:07:26;7.43;;;3.23;;
9322;SDS011;4700;48.822;9.270;2023-01-16T04:10:19;3.67;;;3.33;;
9322;SDS011;4700;48.822;9.270;2023-01-16T04:13:09;3.80;;;3.00;;
9322;SDS011;4700;48.822;9.270;2023-01-16T04:15:59;2.73;;;2.60;;
9322;SDS011;4700;48.822;9.270;2023-01-16T04:18:48;3.30;;;2.70;;
9322;SDS011;4700;48.822;9.270;2023-01-16T04:21:38;5.50;;;2.90;;
9322;SDS011;4700;48.822;9.270;2023-01-16T04:24:28;2.60;;;2.37;;
9322;SDS011;4700;48.822;9.270;2023-01-16T04:27:13;5.93;;;2.53;;
9322;SDS011;4700;48.822;9.270;2023-01-16T04:29:59;2.45;;;2.35;;
9322;SDS011;4700;48.822;9.270;2023-01-16T04:32:47;2.23;;;2.13;;
9322;SDS011;4700;48.822;9.270;2023-01-16T04:35:34;2.75;;;2.00;;
9322;SDS011;4700;48.822;9.270;2023-01-16T04:38:21;2.30;;;2.20;;
9322;SDS011;4700;48.822;9.270;2023-01-16T04:41:07;2.58;;;2.47;;
9322;SDS011;4700;48.822;9.270;2023-01-16T04:43:54;3.33;;;3.03;;
9322;SDS011;4700;48.822;9.270;2023-01-16T04:46:40;2.97;;;2.85;;
9322;SDS011;4700;48.822;9.270;2023-01-16T04:49:27;3.90;;;3.70;;
9322;SDS011;4700;48.822;9.270;2023-01-16T04:52:14;4.33;;;3.93;;
9322;SDS011;4700;48.822;9.270;2023-01-16T04:55:02;4.13;;;3.85;;
9322;SDS011;4700;48.822;9.270;2023-01-16T04:57:49;4.13;;;3.93;;
9322;SDS011;4700;48.822;9.270;2023-01-16T05:00:36;6.40;;;5.10;;
9322;SDS011;4700;48.822;9.270;2023-01-16T05:03:22;4.70;;;4.50;;
9322;SDS011;4700;48.822;9.270;2023-01-16T05:06:09;3.87;;;3.77;;
9322;SDS011;4700;48.822;9.270;2023-01-16T05:08:55;4.25;;;4.05;;
9322;SDS011;4700;48.822;9.270;2023-01-16T05:11:41;8.47;;;3.23;;
9322;SDS011;4700;48.822;9.270;2023-01-16T05:14:27;5.00;;;4.53;;
9322;SDS011;4700;48.822;9.270;2023-01-16T05:17:13;3.80;;;3.33;;
9322;SDS011;4700;48.822;9.270;2023-01-16T05:19:59;3.20;;;2.60;;
9322;SDS011;4700;48.822;9.270;2023-01-16T05:25:12;4.27;;;3.80;;
9322;SDS011;4700;48.822;9.270;2023-01-16T05:27:59;5.73;;;4.33;;
9322;SDS011;4700;48.822;9.270;2023-01-16T05:30:46;5.00;;;3.57;;
9322;SDS011;4700;48.822;9.270;2023-01-16T05:33:33;12.97;;;7.27;;
9322;SDS011;4700;48.822;9.270;2023-01-16T05:36:19;3.27;;;3.03;;
9322;SDS011;4700;48.822;9.270;2023-01-16T05:39:05;5.77;;;4.27;;
9322;SDS011;4700;48.822;9.270;2023-01-16T05:41:53;6.03;;;4.63;;
9322;SDS011;4700;48.822;9.270;2023-01-16T05:44:39;3.70;;;3.40;;
9322;SDS011;4700;48.822;9.270;2023-01-16T05:47:24;7.90;;;5.00;;
9322;SDS011;4700;48.822;9.270;2023-01-16T05:50:11;5.03;;;4.70;;
9322;SDS011;4700;48.822;9.270;2023-01-16T05:52:57;6.57;;;6.03;;
9322;SDS011;4700;48.822;9.270;2023-01-16T05:55:44;4.10;;;3.80;;
9322;SDS011;4700;48.822;9.270;2023-01-16T05:58:35;5.37;;;4.70;;
9322;SDS011;4700;48.822;9.270;2023-01-16T06:01:21;5.43;;;5.00;;
9322;SDS011;4700;48.822;9.270;2023-01-16T06:04:07;5.77;;;5.30;;
9322;SDS011;4700;48.822;9.270;2023-01-16T06:06:54;8.87;;;7.37;;
9322;SDS011;4700;48.822;9.270;2023-01-16T06:09:40;4.70;;;4.33;;
9322;SDS011;4700;48.822;9.270;2023-01-16T06:12:25;11.20;;;7.23;;
9322;SDS011;4700;48.822;9.270;2023-01-16T06:15:13;10.93;;;7.07;;
9322;SDS011;4700;48.822;9.270;2023-01-16T06:17:58;9.00;;;7.70;;
9322;SDS011;4700;48.822;9.270;2023-01-16T06:20:44;6.90;;;5.60;;
9322;SDS011;4700;48.822;9.270;2023-01-16T06:31:09;19.20;;;6.70;;
9322;SDS011;4700;48.822;9.270;2023-01-16T06:39:04;6.03;;;3.80;;
9322;SDS011;4700;48.822;9.270;2023-01-16T06:41:50;11.40;;;5.50;;
9322;SDS011;4700;48.822;9.270;2023-01-16T06:44:36;12.20;;;6.88;;
9322;SDS011;4700;48.822;9.270;2023-01-16T06:47:24;7.55;;;5.88;;
9322;SDS011;4700;48.822;9.270;2023-01-16T06:50:11;5.03;;;4.53;;
9322;SDS011;4700;48.822;9.270;2023-01-16T06:52:57;5.97;;;5.53;;
9322;SDS011;4700;48.822;9.270;2023-01-16T06:55:43;5.50;;;5.20;;
9322;SDS011;4700;48.822;9.270;2023-01-16T06:58:29;13.00;;;8.13;;
9322;SDS011;4700;48.822;9.270;2023-01-16T07:01:15;8.77;;;5.83;;
9322;SDS011;4700;48.822;9.270;2023-01-16T07:04:03;6.43;;;4.20;;
9322;SDS011;4700;48.822;9.270;2023-01-16T07:06:50;6.73;;;3.93;;
9322;SDS011;4700;48.822;9.270;2023-01-16T07:09:37;7.30;;;5.97;;
9322;SDS011;4700;48.822;9.270;2023-01-16T07:12:23;17.40;;;9.20;;
9322;SDS011;4700;48.822;9.270;2023-01-16T07:15:12;10.83;;;4.97;;
9322;SDS011;4700;48.822;9.270;2023-01-16T07:18:16;18.33;;;10.87;;
9322;SDS011;4700;48.822;9.270;2023-01-16T07:21:23;7.10;;;6.60;;
9322;SDS011;4700;48.822;9.270;2023-01-16T07:24:29;11.33;;;10.60;;
9322;SDS011;4700;48.822;9.270;2023-01-16T07:27:19;6.53;;;5.90;;
9322;SDS011;4700;48.822;9.270;2023-01-16T07:32:37;5.77;;;3.90;;
9322;SDS011;4700;48.822;9.270;2023-01-16T07:35:24;4.13;;;3.67;;
9322;SDS011;4700;48.822;9.270;2023-01-16T07:40:44;6.33;;;3.50;;
9322;SDS011;4700;48.822;9.270;2023-01-16T07:43:30;3.20;;;1.70;;
9322;SDS011;4700;48.822;9.270;2023-01-16T07:46:18;7.50;;;2.90;;
9322;SDS011;4700;48.822;9.270;2023-01-16T07:49:09;5.50;;;3.22;;
9322;SDS011;4700;48.822;9.270;2023-01-16T07:51:55;12.63;;;4.80;;
9322;SDS011;4700;48.822;9.270;2023-01-16T07:54:41;11.07;;;5.60;;
9322;SDS011;4700;48.822;9.270;2023-01-16T07:57:28;12.20;;;5.07;;
9322;SDS011;4700;48.822;9.270;2023-01-16T08:00:14;17.27;;;9.00;;
9322;SDS011;4700;48.822;9.270;2023-01-16T08:03:00;7.43;;;5.93;;
9322;SDS011;4700;48.822;9.270;2023-01-16T08:05:46;16.10;;;11.10;;
9322;SDS011;4700;48.822;9.270;2023-01-16T08:08:33;19.63;;;15.93;;
9322;SDS011;4700;48.822;9.270;2023-01-16T08:11:20;19.23;;;17.40;;
9322;SDS011;4700;48.822;9.270;2023-01-16T08:14:24;28.10;;;25.70;;
9322;SDS011;4700;48.822;9.270;2023-01-16T08:17:10;18.87;;;17.23;;
9322;SDS011;4700;48.822;9.270;2023-01-16T08:19:56;14.20;;;13.00;;
9322;SDS011;4700;48.822;9.270;2023-01-16T08:22:42;21.73;;;16.03;;
9322;SDS011;4700;48.822;9.270;2023-01-16T08:25:28;32.37;;;18.17;;
9322;SDS011;4700;48.822;9.270;2023-01-16T08:28:14;23.07;;;14.80;;
9322;SDS011;4700;48.822;9.270;2023-01-16T08:31:04;25.43;;;13.50;;
9322;SDS011;4700;48.822;9.270;2023-01-16T08:33:52;16.30;;;10.20;;
9322;SDS011;4700;48.822;9.270;2023-01-16T08:36:38;16.87;;;8.40;;
9322;SDS011;4700;48.822;9.270;2023-01-16T08:39:24;22.07;;;11.40;;
9322;SDS011;4700;48.822;9.270;2023-01-16T08:42:11;30.73;;;13.60;;
9322;SDS011;4700;48.822;9.270;2023-01-16T08:45:15;35.03;;;14.10;;
9322;SDS011;4700;48.822;9.270;2023-01-16T08:48:23;16.00;;;8.80;;
9322;SDS011;4700;48.822;9.270;2023-01-16T08:51:30;10.97;;;5.97;;
9322;SDS011;4700;48.822;9.270;2023-01-16T08:54:16;17.13;;;8.80;;
9322;SDS011;4700;48.822;9.270;2023-01-16T08:57:02;31.80;;;12.73;;
9322;SDS011;4700;48.822;9.270;2023-01-16T08:59:49;14.53;;;7.00;;
9322;SDS011;4700;48.822;9.270;2023-01-16T09:02:35;30.00;;;13.30;;
9322;SDS011;4700;48.822;9.270;2023-01-16T09:05:24;29.63;;;12.60;;
9322;SDS011;4700;48.822;9.270;2023-01-16T09:08:10;12.40;;;6.43;;
9322;SDS011;4700;48.822;9.270;2023-01-16T09:10:56;16.87;;;7.13;;
9322;SDS011;4700;48.822;9.270;2023-01-16T09:14:00;8.43;;;5.10;;
9322;SDS011;4700;48.822;9.270;2023-01-16T09:16:46;13.37;;;5.83;;
9322;SDS011;4700;48.822;9.270;2023-01-16T09:19:34;26.43;;;11.07;;
9322;SDS011;4700;48.822;9.270;2023-01-16T09:22:22;14.80;;;6.57;;
9322;SDS011;4700;48.822;9.270;2023-01-16T09:25:11;19.80;;;8.23;;
9322;SDS011;4700;48.822;9.270;2023-01-16T09:28:01;19.03;;;7.90;;
9322;SDS011;4700;48.822;9.270;2023-01-16T09:30:47;10.57;;;4.77;;
9322;SDS011;4700;48.822;9.270;2023-01-16T09:33:35;11.87;;;5.90;;
9322;SDS011;4700;48.822;9.270;2023-01-16T09:36:22;20.90;;;7.90;;
9322;SDS011;4700;48.822;9.270;2023-01-16T09:39:11;23.50;;;9.20;;
9322;SDS011;4700;48.822;9.270;2023-01-16T09:42:03;21.17;;;7.80;;
9322;SDS011;4700;48.822;9.270;2023-01-16T09:45:27;26.97;;;11.87;;
9322;SDS011;4700;48.822;9.270;2023-01-16T09:48:19;12.90;;;5.67;;
9322;SDS011;4700;48.822;9.270;2023-01-16T09:51:14;22.77;;;8.40;;
9322;SDS011;4700;48.822;9.270;2023-01-16T09:54:09;18.70;;;7.20;;
9322;SDS011;4700;48.822;9.270;2023-01-16T09:57:18;22.83;;;9.40;;
9322;SDS011;4700;48.822;9.270;2023-01-16T10:00:21;16.43;;;7.30;;
9322;SDS011;4700;48.822;9.270;2023-01-16T10:03:11;14.60;;;6.10;;
9322;SDS011;4700;48.822;9.270;2023-01-16T10:05:59;22.93;;;8.37;;
9322;SDS011;4700;48.822;9.270;2023-01-16T10:09:03;25.00;;;9.67;;
9322;SDS011;4700;48.822;9.270;2023-01-16T10:11:59;21.20;;;7.50;;
9322;SDS011;4700;48.822;9.270;2023-01-16T10:14:55;18.93;;;5.53;;
9322;SDS011;4700;48.822;9.270;2023-01-16T10:17:55;17.50;;;6.83;;
9322;SDS011;4700;48.822;9.270;2023-01-16T10:20:54;15.67;;;6.23;;
9322;SDS011;4700;48.822;9.270;2023-01-16T10:23:53;13.80;;;5.33;;
9322;SDS011;4700;48.822;9.270;2023-01-16T10:26:47;16.47;;;6.97;;
9322;SDS011;4700;48.822;9.270;2023-01-16T10:29:44;14.20;;;5.80;;
9322;SDS011;4700;48.822;9.270;2023-01-16T10:32:36;15.77;;;6.47;;
9322;SDS011;4700;48.822;9.270;2023-01-16T10:35:29;27.40;;;10.70;;
9322;SDS011;4700;48.822;9.270;2023-01-16T10:38:21;26.03;;;10.27;;
9322;SDS011;4700;48.822;9.270;2023-01-16T10:41:12;25.93;;;10.33;;
9322;SDS011;4700;48.822;9.270;2023-01-16T10:44:25;15.53;;;5.10;;
9322;SDS011;4700;48.822;9.270;2023-01-16T10:47:33;16.83;;;6.97;;
9322;SDS011;4700;48.822;9.270;2023-01-16T10:50:37;24.57;;;7.67;;
9322;SDS011;4700;48.822;9.270;2023-01-16T10:53:26;24.33;;;9.03;;
9322;SDS011;4700;48.822;9.270;2023-01-16T10:56:13;23.93;;;8.37;;
9322;SDS011;4700;48.822;9.270;2023-01-16T10:58:59;18.97;;;7.03;;
9322;SDS011;4700;48.822;9.270;2023-01-16T11:01:49;30.93;;;11.60;;
9322;SDS011;4700;48.822;9.270;2023-01-16T11:04:42;27.70;;;8.93;;
9322;SDS011;4700;48.822;9.270;2023-01-16T11:07:31;16.90;;;7.07;;
9322;SDS011;4700;48.822;9.270;2023-01-16T11:10:19;13.97;;;5.57;;
9322;SDS011;4700;48.822;9.270;2023-01-16T11:13:11;9.63;;;3.87;;
9322;SDS011;4700;48.822;9.270;2023-01-16T11:16:18;21.50;;;8.43;;
9322;SDS011;4700;48.822;9.270;2023-01-16T11:19:24;13.33;;;5.90;;
9322;SDS011;4700;48.822;9.270;2023-01-16T11:22:22;16.97;;;7.17;;
9322;SDS011;4700;48.822;9.270;2023-01-16T11:25:13;15.20;;;6.40;;
9322;SDS011;4700;48.822;9.270;2023-01-16T11:28:02;21.37;;;8.53;;
9322;SDS011;4700;48.822;9.270;2023-01-16T11:30:53;23.60;;;8.40;;
9322;SDS011;4700;48.822;9.270;2023-01-16T11:33:42;11.77;;;4.37;;
9322;SDS011;4700;48.822;9.270;2023-01-16T11:36:31;13.53;;;5.63;;
9322;SDS011;4700;48.822;9.270;2023-01-16T11:39:20;32.07;;;10.13;;
9322;SDS011;4700;48.822;9.270;2023-01-16T11:42:09;18.00;;;7.47;;
9322;SDS011;4700;48.822;9.270;2023-01-16T11:45:20;22.23;;;8.40;;
9322;SDS011;4700;48.822;9.270;2023-01-16T11:48:27;14.20;;;5.90;;
9322;SDS011;4700;48.822;9.270;2023-01-16T11:51:14;13.50;;;5.33;;
9322;SDS011;4700;48.822;9.270;2023-01-16T11:54:02;18.90;;;7.80;;
9322;SDS011;4700;48.822;9.270;2023-01-16T11:56:59;25.53;;;9.33;;
9322;SDS011;4700;48.822;9.270;2023-01-16T12:06:46;24.13;;;9.43;;
9322;SDS011;4700;48.822;9.270;2023-01-16T12:09:47;37.87;;;14.83;;
9322;SDS011;4700;48.822;9.270;2023-01-16T12:12:39;27.30;;;10.90;;
9322;SDS011;4700;48.822;9.270;2023-01-16T12:15:56;18.37;;;7.57;;
9322;SDS011;4700;48.822;9.270;2023-01-16T12:18:58;34.27;;;13.00;;
9322;SDS011;4700;48.822;9.270;2023-01-16T12:21:53;10.53;;;4.23;;
9322;SDS011;4700;48.822;9.270;2023-01-16T12:24:47;12.03;;;5.30;;
9322;SDS011;4700;48.822;9.270;2023-01-16T12:27:40;17.20;;;7.20;;
9322;SDS011;4700;48.822;9.270;2023-01-16T12:30:35;18.77;;;7.50;;
9322;SDS011;4700;48.822;9.270;2023-01-16T12:33:35;19.13;;;7.50;;
9322;SDS011;4700;48.822;9.270;2023-01-16T12:36:29;18.30;;;8.00;;
9322;SDS011;4700;48.822;9.270;2023-01-16T12:39:28;23.50;;;7.13;;
9322;SDS011;4700;48.822;9.270;2023-01-16T12:42:29;14.33;;;6.10;;
9322;SDS011;4700;48.822;9.270;2023-01-16T12:45:44;40.77;;;15.23;;
9322;SDS011;4700;48.822;9.270;2023-01-16T12:48:49;20.03;;;8.10;;
9322;SDS011;4700;48.822;9.270;2023-01-16T12:51:51;18.10;;;6.93;;
9322;SDS011;4700;48.822;9.270;2023-01-16T12:54:54;16.07;;;6.80;;
9322;SDS011;4700;48.822;9.270;2023-01-16T12:58:02;27.53;;;10.30;;
9322;SDS011;4700;48.822;9.270;2023-01-16T13:01:03;22.73;;;8.90;;
9322;SDS011;4700;48.822;9.270;2023-01-16T13:03:55;21.20;;;8.30;;
9322;SDS011;4700;48.822;9.270;2023-01-16T13:06:46;22.63;;;7.70;;
9322;SDS011;4700;48.822;9.270;2023-01-16T13:09:34;14.27;;;6.43;;
9322;SDS011;4700;48.822;9.270;2023-01-16T13:12:24;14.83;;;6.07;;
9322;SDS011;4700;48.822;9.270;2023-01-16T13:15:33;21.80;;;9.00;;
9322;SDS011;4700;48.822;9.270;2023-01-16T13:18:23;22.00;;;9.13;;
9322;SDS011;4700;48.822;9.270;2023-01-16T13:21:13;14.60;;;6.03;;
9322;SDS011;4700;48.822;9.270;2023-01-16T13:24:03;16.83;;;7.00;;
9322;SDS011;4700;48.822;9.270;2023-01-16T13:26:56;21.13;;;8.87;;
9322;SDS011;4700;48.822;9.270;2023-01-16T13:29:46;28.33;;;11.30;;
9322;SDS011;4700;48.822;9.270;2023-01-16T13:32:36;21.00;;;8.00;;
9322;SDS011;4700;48.822;9.270;2023-01-16T13:35:27;17.33;;;7.13;;
9322;SDS011;4700;48.822;9.270;2023-01-16T13:38:23;22.40;;;9.07;;
9322;SDS011;4700;48.822;9.270;2023-01-16T13:41:24;16.27;;;6.00;;
9322;SDS011;4700;48.822;9.270;2023-01-16T13:44:16;11.10;;;5.03;;
9322;SDS011;4700;48.822;9.270;2023-01-16T13:47:23;13.20;;;5.73;;
9322;SDS011;4700;48.822;9.270;2023-01-16T13:50:17;17.43;;;6.90;;
9322;SDS011;4700;48.822;9.270;2023-01-16T13:53:08;11.97;;;5.13;;
9322;SDS011;4700;48.822;9.270;2023-01-16T13:56:02;20.20;;;6.30;;
9322;SDS011;4700;48.822;9.270;2023-01-16T13:58:55;34.50;;;12.63;;
9322;SDS011;4700;48.822;9.270;2023-01-16T14:01:53;15.90;;;7.50;;
9322;SDS011;4700;48.822;9.270;2023-01-16T14:04:40;22.30;;;9.90;;
9322;SDS011;4700;48.822;9.270;2023-01-16T14:07:45;14.33;;;6.70;;
9322;SDS011;4700;48.822;9.270;2023-01-16T14:11:04;13.83;;;5.90;;
9322;SDS011;4700;48.822;9.270;2023-01-16T14:14:19;12.23;;;5.07;;
9322;SDS011;4700;48.822;9.270;2023-01-16T14:21:01;25.30;;;9.20;;
9322;SDS011;4700;48.822;9.270;2023-01-16T14:23:49;11.63;;;5.17;;
9322;SDS011;4700;48.822;9.270;2023-01-16T14:26:50;15.60;;;5.67;;
9322;SDS011;4700;48.822;9.270;2023-01-16T14:29:43;19.90;;;7.57;;
9322;SDS011;4700;48.822;9.270;2023-01-16T14:32:33;9.77;;;4.30;;
9322;SDS011;4700;48.822;9.270;2023-01-16T14:35:23;16.43;;;4.87;;
9322;SDS011;4700;48.822;9.270;2023-01-16T14:38:14;5.00;;;2.20;;
9322;SDS011;4700;48.822;9.270;2023-01-16T14:41:03;16.40;;;6.53;;
9322;SDS011;4700;48.822;9.270;2023-01-16T14:44:15;10.00;;;4.37;;
9322;SDS011;4700;48.822;9.270;2023-01-16T14:47:24;12.77;;;5.30;;
9322;SDS011;4700;48.822;9.270;2023-01-16T14:50:39;17.33;;;7.40;;
9322;SDS011;4700;48.822;9.270;2023-01-16T14:53:57;33.13;;;13.33;;
9322;SDS011;4700;48.822;9.270;2023-01-16T14:57:06;18.40;;;8.17;;
9322;SDS011;4700;48.822;9.270;2023-01-16T14:59:58;18.23;;;7.60;;
9322;SDS011;4700;48.822;9.270;2023-01-16T15:02:50;13.17;;;5.40;;
9322;SDS011;4700;48.822;9.270;2023-01-16T15:05:41;15.23;;;6.60;;
9322;SDS011;4700;48.822;9.270;2023-01-16T15:08:38;10.60;;;4.30;;
9322;SDS011;4700;48.822;9.270;2023-01-16T15:11:29;21.77;;;8.70;;
9322;SDS011;4700;48.822;9.270;2023-01-16T15:14:29;32.50;;;13.63;;
9322;SDS011;4700;48.822;9.270;2023-01-16T15:17:20;9.67;;;4.67;;
9322;SDS011;4700;48.822;9.270;2023-01-16T15:20:31;14.83;;;6.70;;
9322;SDS011;4700;48.822;9.270;2023-01-16T15:23:35;10.00;;;4.40;;
9322;SDS011;4700;48.822;9.270;2023-01-16T15:26:29;19.87;;;8.63;;
9322;SDS011;4700;48.822;9.270;2023-01-16T15:29:37;24.27;;;9.00;;
9322;SDS011;4700;48.822;9.270;2023-01-16T15:32:32;13.43;;;5.60;;
9322;SDS011;4700;48.822;9.270;2023-01-16T15:35:36;19.70;;;8.30;;
9322;SDS011;4700;48.822;9.270;2023-01-16T15:38:23;14.73;;;4.70;;
9322;SDS011;4700;48.822;9.270;2023-01-16T15:41:19;17.03;;;6.30;;
9322;SDS011;4700;48.822;9.270;2023-01-16T15:44:31;12.47;;;5.30;;
9322;SDS011;4700;48.822;9.270;2023-01-16T15:47:51;11.10;;;4.90;;
9322;SDS011;4700;48.822;9.270;2023-01-16T15:50:52;8.03;;;3.70;;
9322;SDS011;4700;48.822;9.270;2023-01-16T15:53:49;12.17;;;4.53;;
9322;SDS011;4700;48.822;9.270;2023-01-16T15:56:38;11.07;;;4.90;;
9322;SDS011;4700;48.822;9.270;2023-01-16T15:59:28;8.67;;;3.80;;
9322;SDS011;4700;48.822;9.270;2023-01-16T16:02:18;15.60;;;5.43;;
9322;SDS011;4700;48.822;9.270;2023-01-16T16:05:11;24.53;;;9.30;;
9322;SDS011;4700;48.822;9.270;2023-01-16T16:08:02;18.10;;;6.67;;
9322;SDS011;4700;48.822;9.270;2023-01-16T16:10:50;14.30;;;5.70;;
9322;SDS011;4700;48.822;9.270;2023-01-16T16:13:54;10.47;;;4.50;;
9322;SDS011;4700;48.822;9.270;2023-01-16T16:16:41;11.13;;;5.07;;
9322;SDS011;4700;48.822;9.270;2023-01-16T16:23:17;17.60;;;7.13;;
9322;SDS011;4700;48.822;9.270;2023-01-16T16:26:05;14.80;;;5.83;;
9322;SDS011;4700;48.822;9.270;2023-01-16T16:29:00;7.07;;;3.03;;
9322;SDS011;4700;48.822;9.270;2023-01-16T16:31:47;7.20;;;3.30;;
9322;SDS011;4700;48.822;9.270;2023-01-16T16:34:34;4.50;;;1.47;;
9322;SDS011;4700;48.822;9.270;2023-01-16T16:37:22;5.67;;;3.00;;
9322;SDS011;4700;48.822;9.270;2023-01-16T16:40:12;13.40;;;3.80;;
9322;SDS011;4700;48.822;9.270;2023-01-16T16:43:00;7.93;;;3.80;;
9322;SDS011;4700;48.822;9.270;2023-01-16T16:45:46;10.90;;;4.73;;
9322;SDS011;4700;48.822;9.270;2023-01-16T16:48:31;8.10;;;3.10;;
9322;SDS011;4700;48.822;9.270;2023-01-16T16:51:18;6.13;;;2.97;;
9322;SDS011;4700;48.822;9.270;2023-01-16T16:54:08;6.47;;;3.10;;
9322;SDS011;4700;48.822;9.270;2023-01-16T16:56:57;6.33;;;3.23;;
9322;SDS011;4700;48.822;9.270;2023-01-16T16:59:44;4.33;;;2.33;;
9322;SDS011;4700;48.822;9.270;2023-01-16T17:02:33;4.70;;;2.70;;
9322;SDS011;4700;48.822;9.270;2023-01-16T17:05:23;3.90;;;2.30;;
9322;SDS011;4700;48.822;9.270;2023-01-16T17:08:19;2.87;;;1.80;;
9322;SDS011;4700;48.822;9.270;2023-01-16T17:11:09;1.53;;;1.37;;
9322;SDS011;4700;48.822;9.270;2023-01-16T17:13:55;6.40;;;4.00;;
9322;SDS011;4700;48.822;9.270;2023-01-16T17:16:41;5.20;;;2.30;;
9322;SDS011;4700;48.822;9.270;2023-01-16T17:19:28;4.50;;;2.20;;
9322;SDS011;4700;48.822;9.270;2023-01-16T17:22:15;1.83;;;1.40;;
9322;SDS011;4700;48.822;9.270;2023-01-16T17:25:01;6.47;;;3.30;;
9322;SDS011;4700;48.822;9.270;2023-01-16T17:27:49;1.35;;;1.25;;
9322;SDS011;4700;48.822;9.270;2023-01-16T17:30:36;2.17;;;1.47;;
9322;SDS011;4700;48.822;9.270;2023-01-16T17:33:23;2.77;;;1.70;;
9322;SDS011;4700;48.822;9.270;2023-01-16T17:36:12;7.83;;;3.57;;
9322;SDS011;4700;48.822;9.270;2023-01-16T17:39:02;4.50;;;2.50;;
9322;SDS011;4700;48.822;9.270;2023-01-16T17:41:48;10.00;;;4.00;;
9322;SDS011;4700;48.822;9.270;2023-01-16T17:44:53;4.10;;;2.50;;
9322;SDS011;4700;48.822;9.270;2023-01-16T17:47:57;1.97;;;1.77;;
9322;SDS011;4700;48.822;9.270;2023-01-16T17:50:43;2.13;;;1.73;;
9322;SDS011;4700;48.822;9.270;2023-01-16T17:53:29;2.77;;;2.10;;
9322;SDS011;4700;48.822;9.270;2023-01-16T17:56:19;2.30;;;1.87;;
9322;SDS011;4700;48.822;9.270;2023-01-16T17:59:05;6.70;;;3.57;;
9322;SDS011;4700;48.822;9.270;2023-01-16T18:01:54;4.43;;;2.50;;
9322;SDS011;4700;48.822;9.270;2023-01-16T18:04:40;4.80;;;2.77;;
9322;SDS011;4700;48.822;9.270;2023-01-16T18:07:26;3.80;;;2.20;;
9322;SDS011;4700;48.822;9.270;2023-01-16T18:10:12;4.67;;;2.50;;
9322;SDS011;4700;48.822;9.270;2023-01-16T18:12:59;2.20;;;1.70;;
9322;SDS011;4700;48.822;9.270;2023-01-16T18:16:03;4.90;;;3.10;;
9322;SDS011;4700;48.822;9.270;2023-01-16T18:19:08;3.57;;;2.20;;
9322;SDS011;4700;48.822;9.270;2023-01-16T18:21:55;2.50;;;2.20;;